createdAt,value
2023-12-24T00:03:16.446Z,87.90
2023-12-24T00:08:16.404Z,88.82
2023-12-24T00:13:16.281Z,89.23
2023-12-24T00:18:16.459Z,88.92
2023-12-24T00:23:16.188Z,88.82
2023-12-24T00:28:16.103Z,88.86
2023-12-24T00:33:16.093Z,88.82
2023-12-24T00:38:16.017Z,88.86
2023-12-24T00:43:15.879Z,88.00
2023-12-24T00:48:15.917Z,87.49
2023-12-24T00:53:17.241Z,87.24
2023-12-24T00:58:15.689Z,87.79
2023-12-24T01:03:15.630Z,88.51
2023-12-24T01:08:15.625Z,88.41
2023-12-24T01:13:15.517Z,87.79
2023-12-24T01:18:15.466Z,88.47
2023-12-24T01:23:15.418Z,87.14
2023-12-24T01:28:15.281Z,85.87
2023-12-24T01:33:15.359Z,85.97
2023-12-24T01:38:15.235Z,86.14
2023-12-24T01:43:15.167Z,86.28
2023-12-24T01:48:15.038Z,86.07
2023-12-24T01:53:14.980Z,85.42
2023-12-24T01:58:14.872Z,85.63
2023-12-24T02:03:14.858Z,86.24
2023-12-24T02:08:14.767Z,85.22
2023-12-24T02:13:14.718Z,83.88
2023-12-24T02:18:14.720Z,84.19
2023-12-24T02:23:14.712Z,83.98
2023-12-24T02:28:14.473Z,83.78
2023-12-24T02:33:14.561Z,83.37
2023-12-24T02:38:14.343Z,83.88
2023-12-24T02:43:14.290Z,84.33
2023-12-24T02:48:14.361Z,84.74
2023-12-24T02:53:14.200Z,84.44
2023-12-24T02:58:14.063Z,84.95
2023-12-24T03:03:14.016Z,84.53
2023-12-24T03:08:13.934Z,84.53
2023-12-24T03:13:13.852Z,84.74
2023-12-24T03:18:13.878Z,84.23
2023-12-24T03:23:13.758Z,84.33
2023-12-24T03:28:13.710Z,84.44
2023-12-24T03:33:13.658Z,85.15
2023-12-24T03:38:13.644Z,85.46
2023-12-24T03:43:13.446Z,85.77
2023-12-24T03:48:13.660Z,86.69
2023-12-24T03:53:13.381Z,86.79
2023-12-24T03:58:13.276Z,87.10
2023-12-24T04:03:13.239Z,87.76
2023-12-24T04:08:13.200Z,88.27
2023-12-24T04:13:13.102Z,88.57
2023-12-24T04:18:13.125Z,88.98
2023-12-24T04:23:12.973Z,90.52
2023-12-24T04:28:12.856Z,91.86
2023-12-24T04:33:12.980Z,92.93
2023-12-24T04:38:12.741Z,93.44
2023-12-24T04:43:12.640Z,93.85
2023-12-24T04:48:12.683Z,94.15
2023-12-24T04:53:12.517Z,94.71
2023-12-24T04:58:12.469Z,95.64
2023-12-24T05:03:12.375Z,96.04
2023-12-24T05:08:12.342Z,96.56
2023-12-24T05:13:12.237Z,97.38
2023-12-24T05:18:12.551Z,98.25
2023-12-24T05:23:12.128Z,98.66
2023-12-24T05:28:12.056Z,99.58
2023-12-24T05:33:12.126Z,99.99
2023-12-24T05:38:11.936Z,99.99
2023-12-24T05:43:11.843Z,99.99
2023-12-24T05:48:11.860Z,99.99
2023-12-24T05:53:11.714Z,99.99
2023-12-24T05:58:11.674Z,99.99
2023-12-24T06:03:11.589Z,99.99
2023-12-24T06:08:11.661Z,99.99
2023-12-24T06:13:11.439Z,99.99
2023-12-24T06:18:11.562Z,99.99
2023-12-24T06:23:11.354Z,99.99
2023-12-24T06:28:11.288Z,99.99
2023-12-24T06:33:11.242Z,99.99
2023-12-24T06:38:11.164Z,99.99
2023-12-24T06:43:11.028Z,99.99
2023-12-24T06:48:11.155Z,99.99
2023-12-24T06:53:10.912Z,99.99
2023-12-24T06:58:10.837Z,99.99
2023-12-24T07:03:10.830Z,99.99
2023-12-24T07:08:10.739Z,99.99
2023-12-24T07:13:10.646Z,99.99
2023-12-24T07:18:10.806Z,99.99
2023-12-24T07:23:10.564Z,99.99
2023-12-24T07:28:10.419Z,99.99
2023-12-24T07:33:12.238Z,99.99
2023-12-24T07:38:10.368Z,99.99
2023-12-24T07:43:10.247Z,99.99
2023-12-24T07:48:10.401Z,99.99
2023-12-24T07:53:10.147Z,99.99
2023-12-24T07:58:10.070Z,99.99
2023-12-24T08:03:10.048Z,99.99
2023-12-24T08:08:09.917Z,99.99
2023-12-24T08:13:14.183Z,99.79
2023-12-24T08:18:09.923Z,99.63
2023-12-24T08:23:09.825Z,99.12
2023-12-24T08:28:09.652Z,99.08
2023-12-24T08:33:09.662Z,99.33
2023-12-24T08:38:09.491Z,99.18
2023-12-24T08:43:09.442Z,98.36
2023-12-24T08:48:09.515Z,98.46
2023-12-24T08:53:09.309Z,98.87
2023-12-24T08:58:09.231Z,99.08
2023-12-24T09:03:09.190Z,98.77
2023-12-24T09:08:11.842Z,98.67
2023-12-24T09:13:09.012Z,98.25
2023-12-24T09:18:09.098Z,98.77
2023-12-24T09:23:08.983Z,99.08
2023-12-24T09:28:08.835Z,99.69
2023-12-24T09:33:08.998Z,99.90
2023-12-24T09:38:08.754Z,99.85
2023-12-24T09:43:08.624Z,99.65
2023-12-24T09:48:08.640Z,98.72
2023-12-24T09:53:08.533Z,98.72
2023-12-24T09:58:08.429Z,98.21
2023-12-24T10:03:08.365Z,97.96
2023-12-24T10:08:08.296Z,97.65
2023-12-24T10:13:08.228Z,97.04
2023-12-24T10:18:08.281Z,96.63
2023-12-24T10:23:08.165Z,96.42
2023-12-24T10:28:07.996Z,96.94
2023-12-24T10:33:08.064Z,96.22
2023-12-24T10:38:07.896Z,96.63
2023-12-24T10:43:07.800Z,95.46
2023-12-24T10:48:07.811Z,95.05
2023-12-24T10:53:07.764Z,93.77
2023-12-24T10:58:07.615Z,94.08
2023-12-24T11:03:07.547Z,94.29
2023-12-24T11:08:07.476Z,93.37
2023-12-24T11:13:11.921Z,93.67
2023-12-24T11:18:09.493Z,93.26
2023-12-24T11:23:07.338Z,93.77
2023-12-24T11:28:07.183Z,93.88
2023-12-24T11:33:07.268Z,93.88
2023-12-24T11:38:07.085Z,93.67
2023-12-24T11:43:07.014Z,93.26
2023-12-24T11:48:07.157Z,93.16
2023-12-24T11:53:06.866Z,93.43
2023-12-24T11:58:06.771Z,93.57
2023-12-24T12:03:06.752Z,93.12
2023-12-24T12:08:06.741Z,93.01
2023-12-24T12:13:06.596Z,92.71
2023-12-24T12:18:06.568Z,93.12
2023-12-24T12:23:06.535Z,93.63
2023-12-24T12:28:06.389Z,93.63
2023-12-24T12:33:06.406Z,92.81
2023-12-24T12:38:06.301Z,93.01
2023-12-24T12:43:06.206Z,93.52
2023-12-24T12:48:06.379Z,93.84
2023-12-24T12:53:06.228Z,94.24
2023-12-24T12:58:05.977Z,93.84
2023-12-24T13:03:05.972Z,93.73
2023-12-24T13:08:05.923Z,95.37
2023-12-24T13:13:05.854Z,97.36
2023-12-24T13:18:05.865Z,98.90
2023-12-24T13:23:05.724Z,99.99
2023-12-24T13:28:05.569Z,99.99
2023-12-24T13:33:05.739Z,99.99
2023-12-24T13:38:05.507Z,99.99
2023-12-24T13:43:05.379Z,99.99
2023-12-24T13:48:05.506Z,99.99
2023-12-24T13:53:15.465Z,99.99
2023-12-24T13:58:06.171Z,99.99
2023-12-24T14:03:05.130Z,99.99
2023-12-24T14:08:05.038Z,99.99
2023-12-24T14:13:04.988Z,99.25
2023-12-24T14:18:05.147Z,98.74
2023-12-24T14:23:04.852Z,98.22
2023-12-24T14:28:05.089Z,98.02
2023-12-24T14:33:04.987Z,97.40
2023-12-24T14:38:04.672Z,97.36
2023-12-24T14:43:04.595Z,97.05
2023-12-24T14:48:04.874Z,96.23
2023-12-24T14:53:04.460Z,96.54
2023-12-24T14:58:04.358Z,96.84
2023-12-24T15:03:04.320Z,96.74
2023-12-24T15:08:04.221Z,97.46
2023-12-24T15:13:04.194Z,97.97
2023-12-24T15:18:04.259Z,97.36
2023-12-24T15:23:04.056Z,97.05
2023-12-24T15:28:03.982Z,97.25
2023-12-24T15:33:04.243Z,96.84
2023-12-24T15:38:03.824Z,96.74
2023-12-24T15:43:03.756Z,96.95
2023-12-24T15:48:03.947Z,96.74
2023-12-24T15:53:03.675Z,97.05
2023-12-24T15:58:03.553Z,97.15
2023-12-24T16:03:03.498Z,96.84
2023-12-24T16:08:03.409Z,97.15
2023-12-24T16:13:03.393Z,96.84
2023-12-24T16:18:03.531Z,97.25
2023-12-24T16:23:03.269Z,97.25
2023-12-24T16:28:03.151Z,97.36
2023-12-24T16:33:03.184Z,97.15
2023-12-24T16:38:03.017Z,97.25
2023-12-24T16:43:02.962Z,97.25
2023-12-24T16:48:03.076Z,97.56
2023-12-24T16:53:02.826Z,97.46
2023-12-24T16:58:03.024Z,97.36
2023-12-24T17:03:02.716Z,97.15
2023-12-24T17:08:02.714Z,97.36
2023-12-24T17:13:02.548Z,97.25
2023-12-24T17:18:02.655Z,97.05
2023-12-24T17:23:02.399Z,97.25
2023-12-24T17:28:02.336Z,97.15
2023-12-24T17:33:02.368Z,97.21
2023-12-24T17:38:02.244Z,96.70
2023-12-24T17:43:02.171Z,96.29
2023-12-24T17:48:09.639Z,96.59
2023-12-24T17:53:03.002Z,96.39
2023-12-24T17:58:01.931Z,96.39
2023-12-24T18:03:01.994Z,95.57
2023-12-24T18:08:01.811Z,95.57
2023-12-24T18:13:01.743Z,95.37
2023-12-24T18:18:01.849Z,94.71
2023-12-24T18:23:01.585Z,94.20
2023-12-24T18:28:01.562Z,94.51
2023-12-24T18:33:01.826Z,94.10
2023-12-24T18:38:01.418Z,93.79
2023-12-24T18:43:01.332Z,92.87
2023-12-24T18:48:01.392Z,92.62
2023-12-24T18:53:01.194Z,92.97
2023-12-24T18:58:01.137Z,93.07
2023-12-24T19:03:01.196Z,93.13
2023-12-24T19:08:01.003Z,93.03
2023-12-24T19:13:00.926Z,92.93
2023-12-24T19:18:01.006Z,92.27
2023-12-24T19:23:00.808Z,94.46
2023-12-24T19:28:00.782Z,96.04
2023-12-24T19:33:00.822Z,95.94
2023-12-24T19:38:00.577Z,94.81
2023-12-24T19:43:00.530Z,95.02
2023-12-24T19:48:00.763Z,94.92
2023-12-24T19:53:00.429Z,94.51
2023-12-24T19:58:00.347Z,93.95
2023-12-24T20:03:00.497Z,93.33
2023-12-24T20:08:00.183Z,93.85
2023-12-24T20:13:00.290Z,93.85
2023-12-24T20:18:00.251Z,94.71
2023-12-24T20:23:00.070Z,94.81
2023-12-24T20:27:59.932Z,95.32
2023-12-24T20:32:59.973Z,95.67
2023-12-24T20:37:59.790Z,96.59
2023-12-24T20:42:59.766Z,96.84
2023-12-24T20:47:59.751Z,96.95
2023-12-24T20:52:59.657Z,97.97
2023-12-24T20:57:59.523Z,98.07
2023-12-24T21:02:59.515Z,98.12
2023-12-24T21:07:59.435Z,97.71
2023-12-24T21:12:59.334Z,97.46
2023-12-24T21:17:59.281Z,97.36
2023-12-24T21:22:59.197Z,97.05
2023-12-24T21:28:00.096Z,96.44
2023-12-24T21:32:59.187Z,95.82
2023-12-24T21:37:58.981Z,95.92
2023-12-24T21:42:58.956Z,96.13
2023-12-24T21:47:59.340Z,96.03
2023-12-24T21:52:58.851Z,96.33
2023-12-24T21:57:58.755Z,96.13
2023-12-24T22:02:58.767Z,96.33
2023-12-24T22:07:58.575Z,96.44
2023-12-24T22:12:58.543Z,96.13
2023-12-24T22:17:58.910Z,96.13
2023-12-24T22:22:58.559Z,96.03
2023-12-24T22:28:01.452Z,96.03
2023-12-24T22:32:58.379Z,96.19
2023-12-24T22:37:58.206Z,96.49
2023-12-24T22:42:58.103Z,96.44
2023-12-24T22:47:58.515Z,96.33
2023-12-24T22:52:58.094Z,96.74
2023-12-24T22:57:57.972Z,96.74
2023-12-24T23:02:57.946Z,97.05
2023-12-24T23:07:57.774Z,96.95
2023-12-24T23:12:57.720Z,97.05
2023-12-24T23:17:58.113Z,96.84
2023-12-24T23:22:57.608Z,96.54
2023-12-24T23:27:57.497Z,96.64
2023-12-24T23:32:57.575Z,96.74
2023-12-24T23:37:57.379Z,97.36
2023-12-24T23:42:57.312Z,97.25
2023-12-24T23:47:57.582Z,97.30
2023-12-24T23:52:57.293Z,97.40
2023-12-24T23:57:57.100Z,97.40
